sensor_id;sensor_type;location;lat;lon;timestamp;pressure;altitude;pressure_sealevel;temperature;humidity
26978;BME280;56314;48.088;11.642;2023-12-14T00:02:22;94243.81;;;4.48;100.00
26978;BME280;56314;48.088;11.642;2023-12-14T00:04:47;94242.97;;;4.47;100.00
26978;BME280;56314;48.088;11.642;2023-12-14T00:07:13;94254.19;;;4.48;100.00
26978;BME280;56314;48.088;11.642;2023-12-14T00:09:40;94255.00;;;4.49;100.00
26978;BME280;56314;48.088;11.642;2023-12-14T00:12:06;94255.75;;;4.51;100.00
26978;BME280;56314;48.088;11.642;2023-12-14T00:14:31;94254.94;;;4.50;100.00
26978;BME280;56314;48.088;11.642;2023-12-14T00:16:56;94258.56;;;4.47;100.00
26978;BME280;56314;48.088;11.642;2023-12-14T00:19:24;94255.88;;;4.49;100.00
26978;BME280;56314;48.088;11.642;2023-12-14T00:21:50;94264.81;;;4.45;100.00
26978;BME280;56314;48.088;11.642;2023-12-14T00:24:15;94263.88;;;4.46;100.00
26978;BME280;56314;48.088;11.642;2023-12-14T00:26:40;94261.47;;;4.43;100.00
26978;BME280;56314;48.088;11.642;2023-12-14T00:29:06;94264.94;;;4.43;100.00
26978;BME280;56314;48.088;11.642;2023-12-14T00:31:31;94266.59;;;4.44;100.00
26978;BME280;56314;48.088;11.642;2023-12-14T00:33:56;94271.88;;;4.43;100.00
26978;BME280;56314;48.088;11.642;2023-12-14T00:36:22;94267.28;;;4.46;100.00
26978;BME280;56314;48.088;11.642;2023-12-14T00:38:47;94269.19;;;4.44;100.00
26978;BME280;56314;48.088;11.642;2023-12-14T00:41:12;94271.88;;;4.43;100.00
26978;BME280;56314;48.088;11.642;2023-12-14T00:43:38;94283.13;;;4.43;100.00
26978;BME280;56314;48.088;11.642;2023-12-14T00:46:03;94283.81;;;4.45;100.00
26978;BME280;56314;48.088;11.642;2023-12-14T00:48:29;94293.91;;;4.50;100.00
26978;BME280;56314;48.088;11.642;2023-12-14T00:50:54;94289.75;;;4.47;100.00
26978;BME280;56314;48.088;11.642;2023-12-14T00:53:20;94292.47;;;4.46;100.00
26978;BME280;56314;48.088;11.642;2023-12-14T00:55:45;94302.03;;;4.45;100.00
26978;BME280;56314;48.088;11.642;2023-12-14T00:58:11;94300.16;;;4.47;100.00
26978;BME280;56314;48.088;11.642;2023-12-14T01:00:41;94300.16;;;4.47;100.00
26978;BME280;56314;48.088;11.642;2023-12-14T01:03:06;94314.81;;;4.49;100.00
26978;BME280;56314;48.088;11.642;2023-12-14T01:05:32;94316.69;;;4.46;100.00
26978;BME280;56314;48.088;11.642;2023-12-14T01:07:57;94322.53;;;4.50;100.00
26978;BME280;56314;48.088;11.642;2023-12-14T01:10:22;94328.31;;;4.54;100.00
26978;BME280;56314;48.088;11.642;2023-12-14T01:12:48;94324.16;;;4.51;100.00
26978;BME280;56314;48.088;11.642;2023-12-14T01:15:14;94334.34;;;4.54;100.00
26978;BME280;56314;48.088;11.642;2023-12-14T01:17:39;94334.94;;;4.58;100.00
26978;BME280;56314;48.088;11.642;2023-12-14T01:20:07;94346.09;;;4.60;100.00
26978;BME280;56314;48.088;11.642;2023-12-14T01:22:33;94346.81;;;4.62;100.00
26978;BME280;56314;48.088;11.642;2023-12-14T01:24:59;94349.84;;;4.56;100.00
26978;BME280;56314;48.088;11.642;2023-12-14T01:27:25;94350.66;;;4.56;100.00
26978;BME280;56314;48.088;11.642;2023-12-14T01:29:50;94350.56;;;4.58;100.00
26978;BME280;56314;48.088;11.642;2023-12-14T01:32:15;94360.25;;;4.56;100.00
26978;BME280;56314;48.088;11.642;2023-12-14T01:34:41;94352.47;;;4.56;100.00
26978;BME280;56314;48.088;11.642;2023-12-14T01:37:06;94368.75;;;4.58;100.00
26978;BME280;56314;48.088;11.642;2023-12-14T01:39:32;94356.47;;;4.60;100.00
26978;BME280;56314;48.088;11.642;2023-12-14T01:41:58;94364.28;;;4.60;100.00
26978;BME280;56314;48.088;11.642;2023-12-14T01:44:23;94367.81;;;4.59;100.00
26978;BME280;56314;48.088;11.642;2023-12-14T01:46:48;94370.66;;;4.56;100.00
26978;BME280;56314;48.088;11.642;2023-12-14T01:49:14;94376.06;;;4.53;100.00
26978;BME280;56314;48.088;11.642;2023-12-14T01:51:39;94379.28;;;4.56;100.00
26978;BME280;56314;48.088;11.642;2023-12-14T01:54:04;94382.06;;;4.53;100.00
26978;BME280;56314;48.088;11.642;2023-12-14T01:56:30;94382.59;;;4.58;100.00
26978;BME280;56314;48.088;11.642;2023-12-14T01:58:55;94386.47;;;4.53;100.00
26978;BME280;56314;48.088;11.642;2023-12-14T02:01:47;94390.00;;;4.52;100.00
26978;BME280;56314;48.088;11.642;2023-12-14T02:04:17;94401.34;;;4.51;100.00
26978;BME280;56314;48.088;11.642;2023-12-14T02:06:43;94399.78;;;4.48;100.00
26978;BME280;56314;48.088;11.642;2023-12-14T02:09:09;94404.25;;;4.46;100.00
26978;BME280;56314;48.088;11.642;2023-12-14T02:11:35;94408.59;;;4.45;100.00
26978;BME280;56314;48.088;11.642;2023-12-14T02:14:08;94412.16;;;4.44;100.00
26978;BME280;56314;48.088;11.642;2023-12-14T02:16:34;94423.38;;;4.45;100.00
26978;BME280;56314;48.088;11.642;2023-12-14T02:19:00;94408.84;;;4.42;100.00
26978;BME280;56314;48.088;11.642;2023-12-14T02:21:25;94425.38;;;4.41;100.00
26978;BME280;56314;48.088;11.642;2023-12-14T02:23:50;94423.59;;;4.42;100.00
26978;BME280;56314;48.088;11.642;2023-12-14T02:26:16;94424.53;;;4.41;100.00
26978;BME280;56314;48.088;11.642;2023-12-14T02:28:41;94427.97;;;4.41;100.00
26978;BME280;56314;48.088;11.642;2023-12-14T02:31:07;94424.44;;;4.42;100.00
26978;BME280;56314;48.088;11.642;2023-12-14T02:33:32;94430.44;;;4.43;100.00
26978;BME280;56314;48.088;11.642;2023-12-14T02:35:57;94435.75;;;4.41;100.00
26978;BME280;56314;48.088;11.642;2023-12-14T02:38:23;94437.63;;;4.39;100.00
26978;BME280;56314;48.088;11.642;2023-12-14T02:40:48;94442.09;;;4.37;100.00
26978;BME280;56314;48.088;11.642;2023-12-14T02:43:18;94435.84;;;4.40;100.00
26978;BME280;56314;48.088;11.642;2023-12-14T02:45:44;94444.63;;;4.39;100.00
26978;BME280;56314;48.088;11.642;2023-12-14T02:48:09;94450.09;;;4.34;100.00
26978;BME280;56314;48.088;11.642;2023-12-14T02:50:35;94448.44;;;4.33;100.00
26978;BME280;56314;48.088;11.642;2023-12-14T02:53:00;94455.28;;;4.34;100.00
26978;BME280;56314;48.088;11.642;2023-12-14T02:55:25;94460.09;;;4.40;100.00
26978;BME280;56314;48.088;11.642;2023-12-14T02:57:50;94465.41;;;4.39;100.00
26978;BME280;56314;48.088;11.642;2023-12-14T03:00:16;94467.16;;;4.38;100.00
26978;BME280;56314;48.088;11.642;2023-12-14T03:02:41;94460.91;;;4.41;100.00
26978;BME280;56314;48.088;11.642;2023-12-14T03:05:07;94471.44;;;4.39;100.00
26978;BME280;56314;48.088;11.642;2023-12-14T03:07:33;94469.88;;;4.37;100.00
26978;BME280;56314;48.088;11.642;2023-12-14T03:09:58;94469.13;;;4.35;100.00
26978;BME280;56314;48.088;11.642;2023-12-14T03:12:23;94476.00;;;4.36;100.00
26978;BME280;56314;48.088;11.642;2023-12-14T03:14:49;94477.97;;;4.32;100.00
26978;BME280;56314;48.088;11.642;2023-12-14T03:17:14;94479.22;;;4.26;100.00
26978;BME280;56314;48.088;11.642;2023-12-14T03:19:41;94478.06;;;4.30;100.00
26978;BME280;56314;48.088;11.642;2023-12-14T03:22:08;94480.97;;;4.26;100.00
26978;BME280;56314;48.088;11.642;2023-12-14T03:24:34;94483.56;;;4.26;100.00
26978;BME280;56314;48.088;11.642;2023-12-14T03:27:00;94487.22;;;4.23;100.00
26978;BME280;56314;48.088;11.642;2023-12-14T03:29:26;94490.13;;;4.19;100.00
26978;BME280;56314;48.088;11.642;2023-12-14T03:31:52;94491.78;;;4.20;100.00
26978;BME280;56314;48.088;11.642;2023-12-14T03:34:17;94503.94;;;4.19;100.00
26978;BME280;56314;48.088;11.642;2023-12-14T03:36:42;94520.16;;;4.23;100.00
26978;BME280;56314;48.088;11.642;2023-12-14T03:39:08;94516.00;;;4.20;100.00
26978;BME280;56314;48.088;11.642;2023-12-14T03:41:33;94522.88;;;4.21;100.00
26978;BME280;56314;48.088;11.642;2023-12-14T03:43:58;94522.13;;;4.19;100.00
26978;BME280;56314;48.088;11.642;2023-12-14T03:46:24;94529.09;;;4.19;100.00
26978;BME280;56314;48.088;11.642;2023-12-14T03:48:50;94522.44;;;4.14;100.00
26978;BME280;56314;48.088;11.642;2023-12-14T03:51:19;94530.34;;;4.13;100.00
26978;BME280;56314;48.088;11.642;2023-12-14T03:53:44;94533.66;;;4.15;100.00
26978;BME280;56314;48.088;11.642;2023-12-14T03:56:10;94542.28;;;4.15;100.00
26978;BME280;56314;48.088;11.642;2023-12-14T03:58:35;94545.81;;;4.14;100.00
26978;BME280;56314;48.088;11.642;2023-12-14T04:01:01;94549.25;;;4.15;100.00
26978;BME280;56314;48.088;11.642;2023-12-14T04:03:27;94551.03;;;4.14;100.00
26978;BME280;56314;48.088;11.642;2023-12-14T04:05:52;94556.22;;;4.14;100.00
26978;BME280;56314;48.088;11.642;2023-12-14T04:08:17;94552.81;;;4.14;100.00
26978;BME280;56314;48.088;11.642;2023-12-14T04:10:43;94555.41;;;4.14;100.00
26978;BME280;56314;48.088;11.642;2023-12-14T04:13:08;94559.63;;;4.15;100.00
26978;BME280;56314;48.088;11.642;2023-12-14T04:15:33;94561.22;;;4.18;100.00
26978;BME280;56314;48.088;11.642;2023-12-14T04:17:59;94568.16;;;4.17;100.00
26978;BME280;56314;48.088;11.642;2023-12-14T04:20:24;94569.31;;;4.13;100.00
26978;BME280;56314;48.088;11.642;2023-12-14T04:22:49;94571.19;;;4.11;100.00
26978;BME280;56314;48.088;11.642;2023-12-14T04:25:15;94589.44;;;4.09;100.00
26978;BME280;56314;48.088;11.642;2023-12-14T04:27:40;94585.09;;;4.10;100.00
26978;BME280;56314;48.088;11.642;2023-12-14T04:30:06;94597.97;;;4.11;100.00
26978;BME280;56314;48.088;11.642;2023-12-14T04:32:38;94604.09;;;4.10;100.00
26978;BME280;56314;48.088;11.642;2023-12-14T04:35:04;94606.06;;;4.07;100.00
26978;BME280;56314;48.088;11.642;2023-12-14T04:37:30;94608.47;;;4.10;100.00
26978;BME280;56314;48.088;11.642;2023-12-14T04:39:57;94614.72;;;4.07;100.00
26978;BME280;56314;48.088;11.642;2023-12-14T04:42:22;94614.72;;;4.07;100.00
26978;BME280;56314;48.088;11.642;2023-12-14T04:44:47;94617.41;;;4.06;100.00
26978;BME280;56314;48.088;11.642;2023-12-14T04:47:13;94623.53;;;4.05;100.00
26978;BME280;56314;48.088;11.642;2023-12-14T04:49:38;94627.91;;;4.04;100.00
26978;BME280;56314;48.088;11.642;2023-12-14T04:52:04;94630.69;;;4.01;100.00
26978;BME280;56314;48.088;11.642;2023-12-14T04:54:29;94630.69;;;4.01;100.00
26978;BME280;56314;48.088;11.642;2023-12-14T04:56:55;94632.47;;;4.00;100.00
26978;BME280;56314;48.088;11.642;2023-12-14T04:59:20;94639.41;;;4.00;100.00
26978;BME280;56314;48.088;11.642;2023-12-14T05:01:45;94642.00;;;4.00;100.00
26978;BME280;56314;48.088;11.642;2023-12-14T05:04:11;94647.19;;;4.00;100.00
26978;BME280;56314;48.088;11.642;2023-12-14T05:06:38;94646.38;;;3.99;100.00
26978;BME280;56314;48.088;11.642;2023-12-14T05:09:03;94651.75;;;3.96;100.00
26978;BME280;56314;48.088;11.642;2023-12-14T05:11:29;94657.06;;;3.95;100.00
26978;BME280;56314;48.088;11.642;2023-12-14T05:13:54;94658.06;;;3.92;100.00
26978;BME280;56314;48.088;11.642;2023-12-14T05:16:20;94659.84;;;3.92;100.00
26978;BME280;56314;48.088;11.642;2023-12-14T05:18:45;94665.16;;;3.90;100.00
26978;BME280;56314;48.088;11.642;2023-12-14T05:21:16;94658.19;;;3.91;100.00
26978;BME280;56314;48.088;11.642;2023-12-14T05:23:42;94670.34;;;3.90;100.00
26978;BME280;56314;48.088;11.642;2023-12-14T05:26:08;94673.88;;;3.89;100.00
26978;BME280;56314;48.088;11.642;2023-12-14T05:28:33;94685.25;;;3.87;100.00
26978;BME280;56314;48.088;11.642;2023-12-14T05:31:00;94689.00;;;3.82;100.00
26978;BME280;56314;48.088;11.642;2023-12-14T05:33:25;94696.03;;;3.80;100.00
26978;BME280;56314;48.088;11.642;2023-12-14T05:35:51;94699.38;;;3.82;100.00
26978;BME280;56314;48.088;11.642;2023-12-14T05:38:16;94703.72;;;3.82;100.00
26978;BME280;56314;48.088;11.642;2023-12-14T05:40:41;94710.53;;;3.84;100.00
26978;BME280;56314;48.088;11.642;2023-12-14T05:43:07;94713.19;;;3.83;100.00
26978;BME280;56314;48.088;11.642;2023-12-14T05:45:33;94721.84;;;3.83;100.00
26978;BME280;56314;48.088;11.642;2023-12-14T05:47:58;94735.63;;;3.84;100.00
26978;BME280;56314;48.088;11.642;2023-12-14T05:50:23;94728.03;;;3.81;100.00
26978;BME280;56314;48.088;11.642;2023-12-14T05:52:49;94729.69;;;3.82;100.00
26978;BME280;56314;48.088;11.642;2023-12-14T05:55:14;94731.56;;;3.80;100.00
26978;BME280;56314;48.088;11.642;2023-12-14T05:57:40;94731.56;;;3.80;100.00
26978;BME280;56314;48.088;11.642;2023-12-14T06:00:07;94742.78;;;3.80;100.00
26978;BME280;56314;48.088;11.642;2023-12-14T06:02:32;94752.91;;;3.85;100.00
26978;BME280;56314;48.088;11.642;2023-12-14T06:04:58;94751.13;;;3.85;100.00
26978;BME280;56314;48.088;11.642;2023-12-14T06:07:24;94761.50;;;3.85;100.00
26978;BME280;56314;48.088;11.642;2023-12-14T06:09:49;94759.75;;;3.86;100.00
26978;BME280;56314;48.088;11.642;2023-12-14T06:12:15;94765.06;;;3.84;100.00
26978;BME280;56314;48.088;11.642;2023-12-14T06:14:40;94776.28;;;3.85;100.00
26978;BME280;56314;48.088;11.642;2023-12-14T06:17:06;94772.75;;;3.86;100.00
26978;BME280;56314;48.088;11.642;2023-12-14T06:19:31;94781.94;;;3.92;100.00
26978;BME280;56314;48.088;11.642;2023-12-14T06:21:57;94784.63;;;3.90;100.00
26978;BME280;56314;48.088;11.642;2023-12-14T06:24:23;94787.88;;;3.94;100.00
26978;BME280;56314;48.088;11.642;2023-12-14T06:26:48;94787.78;;;3.95;100.00
26978;BME280;56314;48.088;11.642;2023-12-14T06:29:13;94791.22;;;3.96;100.00
26978;BME280;56314;48.088;11.642;2023-12-14T06:31:39;94800.69;;;3.97;100.00
26978;BME280;56314;48.088;11.642;2023-12-14T06:34:07;94805.94;;;3.95;100.00
26978;BME280;56314;48.088;11.642;2023-12-14T06:36:33;94805.03;;;3.96;100.00
26978;BME280;56314;48.088;11.642;2023-12-14T06:39:00;94810.13;;;3.98;100.00
26978;BME280;56314;48.088;11.642;2023-12-14T06:41:27;94814.59;;;3.96;100.00
26978;BME280;56314;48.088;11.642;2023-12-14T06:43:53;94822.47;;;3.94;100.00
26978;BME280;56314;48.088;11.642;2023-12-14T06:46:19;94826.00;;;3.93;100.00
26978;BME280;56314;48.088;11.642;2023-12-14T06:48:45;94826.91;;;3.92;100.00
26978;BME280;56314;48.088;11.642;2023-12-14T06:51:10;94833.03;;;3.91;100.00
26978;BME280;56314;48.088;11.642;2023-12-14T06:53:39;94831.28;;;3.92;100.00
26978;BME280;56314;48.088;11.642;2023-12-14T06:56:05;94843.34;;;3.93;100.00
26978;BME280;56314;48.088;11.642;2023-12-14T06:58:35;94841.69;;;3.92;100.00
26978;BME280;56314;48.088;11.642;2023-12-14T07:01:00;94849.56;;;3.90;100.00
26978;BME280;56314;48.088;11.642;2023-12-14T07:03:25;94849.66;;;3.89;100.00
26978;BME280;56314;48.088;11.642;2023-12-14T07:05:51;94851.44;;;3.88;100.00
26978;BME280;56314;48.088;11.642;2023-12-14T07:08:16;94860.97;;;3.88;100.00
26978;BME280;56314;48.088;11.642;2023-12-14T07:10:41;94862.63;;;3.89;100.00
26978;BME280;56314;48.088;11.642;2023-12-14T07:13:07;94869.31;;;3.93;100.00
26978;BME280;56314;48.088;11.642;2023-12-14T07:15:33;94870.25;;;3.92;100.00
26978;BME280;56314;48.088;11.642;2023-12-14T07:17:59;94873.59;;;3.94;100.00
26978;BME280;56314;48.088;11.642;2023-12-14T07:20:24;94880.47;;;3.95;100.00
26978;BME280;56314;48.088;11.642;2023-12-14T07:22:50;94886.31;;;3.98;100.00
26978;BME280;56314;48.088;11.642;2023-12-14T07:25:15;94886.31;;;3.98;100.00
26978;BME280;56314;48.088;11.642;2023-12-14T07:27:41;94888.91;;;3.98;100.00
26978;BME280;56314;48.088;11.642;2023-12-14T07:30:07;94893.19;;;3.99;100.00
26978;BME280;56314;48.088;11.642;2023-12-14T07:32:34;94897.47;;;4.00;100.00
26978;BME280;56314;48.088;11.642;2023-12-14T07:34:59;94897.34;;;4.02;100.00
26978;BME280;56314;48.088;11.642;2023-12-14T07:37:25;94904.22;;;4.03;100.00
26978;BME280;56314;48.088;11.642;2023-12-14T07:39:50;94916.19;;;4.06;100.00
26978;BME280;56314;48.088;11.642;2023-12-14T07:42:17;94924.75;;;4.08;100.00
26978;BME280;56314;48.088;11.642;2023-12-14T07:44:45;94919.38;;;4.11;100.00
26978;BME280;56314;48.088;11.642;2023-12-14T07:47:10;94930.22;;;4.18;100.00
26978;BME280;56314;48.088;11.642;2023-12-14T07:49:35;94935.44;;;4.18;100.00
26978;BME280;56314;48.088;11.642;2023-12-14T07:52:01;94936.25;;;4.18;100.00
26978;BME280;56314;48.088;11.642;2023-12-14T07:54:26;94935.50;;;4.16;100.00
26978;BME280;56314;48.088;11.642;2023-12-14T07:56:52;94936.34;;;4.16;100.00
26978;BME280;56314;48.088;11.642;2023-12-14T07:59:17;94936.19;;;4.20;100.00
26978;BME280;56314;48.088;11.642;2023-12-14T08:01:43;94943.06;;;4.21;100.00
26978;BME280;56314;48.088;11.642;2023-12-14T08:04:08;94953.19;;;4.25;100.00
26978;BME280;56314;48.088;11.642;2023-12-14T08:06:35;94948.34;;;4.34;100.00
26978;BME280;56314;48.088;11.642;2023-12-14T08:09:00;94949.84;;;4.38;100.00
26978;BME280;56314;48.088;11.642;2023-12-14T08:11:27;94956.44;;;4.43;100.00
26978;BME280;56314;48.088;11.642;2023-12-14T08:13:52;94955.53;;;4.44;100.00
26978;BME280;56314;48.088;11.642;2023-12-14T08:16:17;94955.41;;;4.46;100.00
26978;BME280;56314;48.088;11.642;2023-12-14T08:18:43;94964.78;;;4.49;100.00
26978;BME280;56314;48.088;11.642;2023-12-14T08:21:11;94966.34;;;4.51;100.00
26978;BME280;56314;48.088;11.642;2023-12-14T08:23:36;94971.38;;;4.54;100.00
26978;BME280;56314;48.088;11.642;2023-12-14T08:26:02;94974.84;;;4.55;100.00
26978;BME280;56314;48.088;11.642;2023-12-14T08:28:27;94982.81;;;4.52;100.00
26978;BME280;56314;48.088;11.642;2023-12-14T08:30:53;94989.84;;;4.50;100.00
26978;BME280;56314;48.088;11.642;2023-12-14T08:33:18;94984.56;;;4.51;100.00
26978;BME280;56314;48.088;11.642;2023-12-14T08:35:44;94989.03;;;4.49;100.00
26978;BME280;56314;48.088;11.642;2023-12-14T08:38:10;94997.84;;;4.46;100.00
26978;BME280;56314;48.088;11.642;2023-12-14T08:40:36;95005.47;;;4.50;100.00
26978;BME280;56314;48.088;11.642;2023-12-14T08:43:02;95010.56;;;4.51;100.00
26978;BME280;56314;48.088;11.642;2023-12-14T08:45:28;95015.88;;;4.50;100.00
26978;BME280;56314;48.088;11.642;2023-12-14T08:47:54;95017.63;;;4.49;100.00
26978;BME280;56314;48.088;11.642;2023-12-14T08:50:19;95023.75;;;4.48;100.00
26978;BME280;56314;48.088;11.642;2023-12-14T08:52:44;95027.94;;;4.51;100.00
26978;BME280;56314;48.088;11.642;2023-12-14T08:55:11;95033.13;;;4.51;100.00
26978;BME280;56314;48.088;11.642;2023-12-14T08:57:36;95033.13;;;4.51;100.00
26978;BME280;56314;48.088;11.642;2023-12-14T09:00:02;95040.66;;;4.55;100.00
26978;BME280;56314;48.088;11.642;2023-12-14T09:02:30;95042.16;;;4.59;100.00
26978;BME280;56314;48.088;11.642;2023-12-14T09:04:55;95038.38;;;4.65;100.00
26978;BME280;56314;48.088;11.642;2023-12-14T09:07:20;95049.25;;;4.72;100.00
26978;BME280;56314;48.088;11.642;2023-12-14T09:09:46;95040.41;;;4.74;100.00
26978;BME280;56314;48.088;11.642;2023-12-14T09:12:11;95052.38;;;4.77;100.00
26978;BME280;56314;48.088;11.642;2023-12-14T09:14:37;95047.19;;;4.77;100.00
26978;BME280;56314;48.088;11.642;2023-12-14T09:17:02;95050.53;;;4.79;100.00
26978;BME280;56314;48.088;11.642;2023-12-14T09:19:30;95054.53;;;4.85;100.00
26978;BME280;56314;48.088;11.642;2023-12-14T09:21:56;95051.94;;;4.85;100.00
26978;BME280;56314;48.088;11.642;2023-12-14T09:24:22;95060.59;;;4.85;100.00
26978;BME280;56314;48.088;11.642;2023-12-14T09:26:48;95066.72;;;4.84;100.00
26978;BME280;56314;48.088;11.642;2023-12-14T09:29:13;95075.19;;;4.88;100.00
26978;BME280;56314;48.088;11.642;2023-12-14T09:31:43;95078.69;;;4.87;100.00
26978;BME280;56314;48.088;11.642;2023-12-14T09:34:12;95078.59;;;4.88;100.00
26978;BME280;56314;48.088;11.642;2023-12-14T09:36:39;95081.31;;;4.87;100.00
26978;BME280;56314;48.088;11.642;2023-12-14T09:39:04;95083.25;;;4.83;100.00
26978;BME280;56314;48.088;11.642;2023-12-14T09:41:30;95089.38;;;4.82;100.00
26978;BME280;56314;48.088;11.642;2023-12-14T09:43:55;95089.94;;;4.87;100.00
26978;BME280;56314;48.088;11.642;2023-12-14T09:46:21;95089.69;;;4.92;100.00
26978;BME280;56314;48.088;11.642;2023-12-14T09:48:50;95098.41;;;4.91;100.00
26978;BME280;56314;48.088;11.642;2023-12-14T09:51:16;95100.91;;;4.92;100.00
26978;BME280;56314;48.088;11.642;2023-12-14T09:53:41;95105.94;;;4.96;100.00
26978;BME280;56314;48.088;11.642;2023-12-14T09:56:06;95112.06;;;4.95;100.00
26978;BME280;56314;48.088;11.642;2023-12-14T09:58:33;95103.06;;;5.00;100.00
26978;BME280;56314;48.088;11.642;2023-12-14T10:00:59;95109.31;;;4.98;100.00
26978;BME280;56314;48.088;11.642;2023-12-14T10:03:28;95111.31;;;4.92;100.00
26978;BME280;56314;48.088;11.642;2023-12-14T10:05:57;95109.66;;;4.91;100.00
26978;BME280;56314;48.088;11.642;2023-12-14T10:08:23;95108.56;;;4.96;100.00
26978;BME280;56314;48.088;11.642;2023-12-14T10:10:52;95114.41;;;4.99;100.00
26978;BME280;56314;48.088;11.642;2023-12-14T10:13:19;95116.91;;;5.01;100.00
26978;BME280;56314;48.088;11.642;2023-12-14T10:15:47;95119.50;;;5.01;100.00
26978;BME280;56314;48.088;11.642;2023-12-14T10:18:23;95119.91;;;5.09;100.00
26978;BME280;56314;48.088;11.642;2023-12-14T10:20:51;95119.53;;;5.15;100.00
26978;BME280;56314;48.088;11.642;2023-12-14T10:23:17;95121.31;;;5.15;100.00
26978;BME280;56314;48.088;11.642;2023-12-14T10:25:43;95117.56;;;5.19;100.00
26978;BME280;56314;48.088;11.642;2023-12-14T10:28:12;95119.63;;;5.14;100.00
26978;BME280;56314;48.088;11.642;2023-12-14T10:30:39;95113.28;;;5.18;100.00
26978;BME280;56314;48.088;11.642;2023-12-14T10:33:04;95112.56;;;5.16;100.00
26978;BME280;56314;48.088;11.642;2023-12-14T10:35:30;95109.03;;;5.17;100.00
26978;BME280;56314;48.088;11.642;2023-12-14T10:37:55;95117.22;;;5.25;100.00
26978;BME280;56314;48.088;11.642;2023-12-14T10:40:24;95116.47;;;5.23;100.00
26978;BME280;56314;48.088;11.642;2023-12-14T10:42:51;95114.22;;;5.31;100.00
26978;BME280;56314;48.088;11.642;2023-12-14T10:45:17;95120.47;;;5.29;100.00
26978;BME280;56314;48.088;11.642;2023-12-14T10:47:46;95124.16;;;5.39;100.00
26978;BME280;56314;48.088;11.642;2023-12-14T10:50:13;95127.34;;;5.44;100.00
26978;BME280;56314;48.088;11.642;2023-12-14T10:52:39;95137.94;;;5.41;100.00
26978;BME280;56314;48.088;11.642;2023-12-14T10:55:21;95139.16;;;5.35;100.00
26978;BME280;56314;48.088;11.642;2023-12-14T10:57:47;95138.22;;;5.36;100.00
26978;BME280;56314;48.088;11.642;2023-12-14T11:00:15;95148.63;;;5.36;100.00
26978;BME280;56314;48.088;11.642;2023-12-14T11:02:45;95146.38;;;5.30;100.00
26978;BME280;56314;48.088;11.642;2023-12-14T11:05:12;95146.38;;;5.30;100.00
26978;BME280;56314;48.088;11.642;2023-12-14T11:07:54;95144.34;;;5.21;100.00
26978;BME280;56314;48.088;11.642;2023-12-14T11:10:37;95159.03;;;5.22;100.00
26978;BME280;56314;48.088;11.642;2023-12-14T11:13:05;95152.72;;;5.26;100.00
26978;BME280;56314;48.088;11.642;2023-12-14T11:15:35;95162.22;;;5.27;100.00
26978;BME280;56314;48.088;11.642;2023-12-14T11:20:56;95174.28;;;5.43;100.00
26978;BME280;56314;48.088;11.642;2023-12-14T11:23:27;95165.47;;;5.45;100.00
26978;BME280;56314;48.088;11.642;2023-12-14T11:26:21;95170.22;;;5.53;100.00
26978;BME280;56314;48.088;11.642;2023-12-14T11:28:49;95177.94;;;5.54;100.00
26978;BME280;56314;48.088;11.642;2023-12-14T11:31:16;95183.91;;;5.57;100.00
26978;BME280;56314;48.088;11.642;2023-12-14T11:33:42;95179.34;;;5.60;100.00
26978;BME280;56314;48.088;11.642;2023-12-14T11:36:11;95180.09;;;5.62;100.00
26978;BME280;56314;48.088;11.642;2023-12-14T11:38:36;95188.06;;;5.59;100.00
26978;BME280;56314;48.088;11.642;2023-12-14T11:41:02;95190.69;;;5.59;100.00
26978;BME280;56314;48.088;11.642;2023-12-14T11:43:28;95191.16;;;5.66;100.00
26978;BME280;56314;48.088;11.642;2023-12-14T11:45:54;95189.81;;;5.88;100.00
26978;BME280;56314;48.088;11.642;2023-12-14T11:48:21;95188.44;;;6.11;100.00
26978;BME280;56314;48.088;11.642;2023-12-14T11:50:47;95185.72;;;6.40;100.00
26978;BME280;56314;48.088;11.642;2023-12-14T11:53:13;95185.00;;;6.65;100.00
26978;BME280;56314;48.088;11.642;2023-12-14T11:55:40;95200.00;;;6.89;100.00
26978;BME280;56314;48.088;11.642;2023-12-14T11:58:07;95195.53;;;7.17;100.00
26978;BME280;56314;48.088;11.642;2023-12-14T12:00:33;95194.59;;;7.05;99.14
26978;BME280;56314;48.088;11.642;2023-12-14T12:03:17;95200.56;;;6.80;96.34
26978;BME280;56314;48.088;11.642;2023-12-14T12:05:46;95204.09;;;6.66;98.12
26978;BME280;56314;48.088;11.642;2023-12-14T12:08:13;95202.63;;;6.61;98.49
26978;BME280;56314;48.088;11.642;2023-12-14T12:10:40;95198.53;;;6.57;97.36
26978;BME280;56314;48.088;11.642;2023-12-14T12:13:11;95205.63;;;6.55;96.88
26978;BME280;56314;48.088;11.642;2023-12-14T12:15:37;95201.63;;;6.50;97.06
26978;BME280;56314;48.088;11.642;2023-12-14T12:18:06;95203.31;;;6.51;97.83
26978;BME280;56314;48.088;11.642;2023-12-14T12:20:32;95209.00;;;6.70;97.38
26978;BME280;56314;48.088;11.642;2023-12-14T12:22:58;95212.31;;;6.87;97.08
26978;BME280;56314;48.088;11.642;2023-12-14T12:25:23;95200.44;;;7.08;97.00
26978;BME280;56314;48.088;11.642;2023-12-14T12:27:49;95206.31;;;7.25;96.42
26978;BME280;56314;48.088;11.642;2023-12-14T12:30:14;95200.59;;;7.33;93.10
26978;BME280;56314;48.088;11.642;2023-12-14T12:32:41;95204.97;;;7.32;92.62
26978;BME280;56314;48.088;11.642;2023-12-14T12:35:07;95212.06;;;7.17;90.36
26978;BME280;56314;48.088;11.642;2023-12-14T12:37:33;95218.59;;;7.10;90.29
26978;BME280;56314;48.088;11.642;2023-12-14T12:39:58;95222.47;;;7.04;90.07
26978;BME280;56314;48.088;11.642;2023-12-14T12:42:23;95229.09;;;6.83;89.71
26978;BME280;56314;48.088;11.642;2023-12-14T12:44:50;95232.50;;;6.70;91.61
26978;BME280;56314;48.088;11.642;2023-12-14T12:47:16;95237.09;;;6.67;93.62
26978;BME280;56314;48.088;11.642;2023-12-14T12:49:41;95226.00;;;6.63;92.39